createdAt,value
2022-12-08T00:06:13.229Z,8.72
2022-12-08T00:13:01.531Z,8.73
2022-12-08T00:19:47.882Z,8.65
2022-12-08T00:26:34.225Z,8.67
2022-12-08T00:33:22.385Z,8.57
2022-12-08T00:40:10.444Z,8.59
2022-12-08T00:46:56.217Z,8.70
2022-12-08T00:53:44.462Z,8.61
2022-12-08T01:00:29.924Z,8.62
2022-12-08T01:07:15.350Z,8.48
2022-12-08T01:14:03.456Z,8.41
2022-12-08T01:20:48.907Z,8.43
2022-12-08T01:27:34.417Z,8.33
2022-12-08T01:34:22.488Z,8.38
2022-12-08T01:41:07.986Z,8.42
2022-12-08T01:47:57.417Z,8.31
2022-12-08T01:54:50.425Z,8.32
2022-12-08T02:01:36.226Z,8.36
2022-12-08T02:08:21.986Z,8.35
2022-12-08T02:15:11.692Z,8.27
2022-12-08T02:22:03.905Z,8.30
2022-12-08T02:29:35.446Z,8.14
2022-12-08T02:36:29.692Z,8.15
2022-12-08T02:43:21.363Z,7.98
2022-12-08T02:50:07.916Z,7.96
2022-12-08T02:57:25.480Z,7.83
2022-12-08T03:04:18.094Z,8.05
2022-12-08T03:11:10.718Z,7.90
2022-12-08T03:18:02.436Z,7.85
2022-12-08T03:24:49.890Z,7.91
2022-12-08T03:31:42.025Z,7.94
2022-12-08T03:38:30.167Z,7.89
2022-12-08T04:06:00.736Z,7.94
2022-12-08T04:12:46.532Z,7.93
2022-12-08T04:19:32.223Z,8.00
2022-12-08T04:26:20.859Z,7.95
2022-12-08T04:33:06.500Z,8.00
2022-12-08T04:39:51.937Z,8.03
2022-12-08T04:46:43.333Z,8.11
2022-12-08T04:53:29.574Z,8.13
2022-12-08T05:00:16.427Z,8.21
2022-12-08T05:07:04.684Z,8.25
2022-12-08T05:13:50.122Z,8.15
2022-12-08T05:20:35.608Z,8.05
2022-12-08T05:27:23.909Z,8.13
2022-12-08T05:34:09.589Z,8.15
2022-12-08T05:40:54.998Z,8.06
2022-12-08T05:47:43.120Z,7.88
2022-12-08T05:54:28.543Z,7.88
2022-12-08T06:01:27.501Z,7.77
2022-12-08T06:08:16.895Z,7.77
2022-12-08T06:15:02.441Z,7.85
2022-12-08T06:21:48.077Z,7.80
2022-12-08T06:28:37.369Z,7.66
2022-12-08T06:35:22.749Z,7.65
2022-12-08T06:42:20.843Z,7.60
2022-12-08T06:49:08.875Z,7.55
2022-12-08T06:55:59.607Z,7.51
2022-12-08T07:02:46.105Z,7.52
2022-12-08T07:09:34.217Z,7.42
2022-12-08T07:16:19.863Z,7.43
2022-12-08T07:23:07.500Z,7.39
2022-12-08T07:29:55.947Z,7.42
2022-12-08T07:36:41.478Z,7.53
2022-12-08T07:43:27.684Z,7.57
2022-12-08T07:50:16.203Z,7.53
2022-12-08T07:57:03.721Z,7.53
2022-12-08T08:03:49.216Z,7.48
2022-12-08T08:10:37.280Z,7.64
2022-12-08T08:17:22.930Z,7.70
2022-12-08T08:24:09.395Z,7.55
2022-12-08T08:30:57.545Z,7.73
2022-12-08T08:37:48.335Z,7.65
2022-12-08T08:44:34.573Z,7.70
2022-12-08T08:51:22.716Z,7.57
2022-12-08T08:58:08.116Z,7.67
2022-12-08T09:04:53.661Z,7.70
2022-12-08T09:11:41.848Z,7.44
2022-12-08T09:18:27.302Z,7.76
2022-12-08T09:25:13.578Z,7.87
2022-12-08T09:32:01.601Z,7.88
2022-12-08T09:38:48.004Z,7.43
2022-12-08T09:45:37.580Z,7.82
2022-12-08T09:52:33.647Z,7.83
2022-12-08T09:59:28.098Z,7.90
2022-12-08T10:06:24.763Z,8.07
2022-12-08T10:13:23.710Z,8.17
2022-12-08T10:20:19.019Z,6.57
2022-12-08T10:27:06.143Z,8.35
2022-12-08T10:33:59.223Z,8.54
2022-12-08T10:40:47.330Z,8.39
2022-12-08T10:47:33.882Z,8.30
2022-12-08T10:54:37.342Z,8.36
2022-12-08T11:01:28.465Z,8.45
2022-12-08T11:08:15.321Z,8.71
2022-12-08T11:15:06.280Z,8.74
2022-12-08T11:21:51.928Z,8.86
2022-12-08T11:28:37.592Z,8.92
2022-12-08T11:35:31.877Z,8.95
2022-12-08T11:42:22.797Z,9.02
2022-12-08T11:49:15.263Z,9.06
2022-12-08T11:56:11.464Z,9.10
2022-12-08T12:03:04.953Z,9.12
2022-12-08T12:10:28.291Z,9.26
2022-12-08T12:17:36.735Z,9.39
2022-12-08T12:24:29.448Z,9.46
2022-12-08T12:31:22.376Z,9.15
2022-12-08T12:38:34.768Z,9.65
2022-12-08T12:45:33.031Z,9.65
2022-12-08T12:52:57.098Z,9.82
2022-12-08T13:00:05.206Z,9.66
2022-12-08T13:06:53.619Z,10.00
2022-12-08T13:13:40.810Z,10.01
2022-12-08T13:20:29.305Z,10.08
2022-12-08T13:27:36.938Z,10.14
2022-12-08T13:34:41.328Z,10.30
2022-12-08T13:41:39.999Z,10.20
2022-12-08T14:03:00.448Z,10.05
2022-12-08T14:09:47.729Z,9.89
2022-12-08T14:16:40.635Z,9.75
2022-12-08T14:23:28.640Z,9.71
2022-12-08T14:30:24.326Z,9.90
2022-12-08T14:37:16.110Z,9.85
2022-12-08T14:44:05.758Z,9.60
2022-12-08T14:51:07.637Z,9.77
2022-12-08T14:57:53.204Z,9.66
2022-12-08T15:04:43.946Z,9.65
2022-12-08T15:11:38.449Z,9.71
2022-12-08T15:18:34.075Z,9.67
2022-12-08T15:25:22.384Z,9.50
2022-12-08T15:32:12.330Z,9.55
2022-12-08T15:38:57.823Z,9.40
2022-12-08T15:45:57.810Z,9.40
2022-12-08T15:52:44.241Z,9.44
2022-12-08T15:59:29.685Z,9.43
2022-12-08T16:13:56.689Z,9.44
2022-12-08T16:21:07.474Z,9.29
2022-12-08T16:28:08.255Z,9.14
2022-12-08T16:34:58.936Z,9.10
2022-12-08T16:41:57.033Z,9.13
2022-12-08T16:48:45.348Z,9.16
2022-12-08T16:55:31.359Z,9.31
2022-12-08T17:02:16.790Z,9.35
2022-12-08T17:09:04.976Z,9.47
2022-12-08T17:15:50.423Z,9.51
2022-12-08T17:22:36.994Z,9.49
2022-12-08T17:29:25.244Z,9.66
2022-12-08T17:36:15.357Z,9.70
2022-12-08T17:43:00.835Z,9.71
2022-12-08T17:49:49.114Z,9.66
2022-12-08T17:56:34.573Z,9.67
2022-12-08T18:03:20.799Z,9.63
2022-12-08T18:10:11.237Z,9.56
2022-12-08T18:16:57.069Z,9.70
2022-12-08T18:23:44.685Z,9.71
2022-12-08T18:30:32.926Z,9.61
2022-12-08T18:37:18.636Z,9.57
2022-12-08T18:44:04.707Z,9.36
2022-12-08T18:50:52.755Z,9.37
2022-12-08T18:57:39.249Z,9.39
2022-12-08T19:04:28.962Z,9.45
2022-12-08T19:11:24.500Z,9.41
2022-12-08T19:18:09.910Z,9.46
2022-12-08T19:24:55.421Z,9.54
2022-12-08T19:31:43.599Z,9.65
2022-12-08T19:38:29.021Z,9.41
2022-12-08T19:45:18.482Z,9.26
2022-12-08T19:52:06.728Z,9.21
2022-12-08T19:58:52.208Z,9.39
2022-12-08T20:05:39.973Z,9.13
2022-12-08T20:12:27.999Z,9.36
2022-12-08T20:19:13.638Z,9.42
2022-12-08T20:25:59.345Z,9.34
2022-12-08T20:32:47.641Z,9.35
2022-12-08T20:39:33.123Z,9.48
2022-12-08T20:46:22.401Z,9.50
2022-12-08T20:53:11.020Z,9.54
2022-12-08T20:59:56.655Z,9.62
2022-12-08T21:06:42.483Z,9.60
2022-12-08T21:13:30.828Z,9.62
2022-12-08T21:20:16.431Z,9.63
2022-12-08T21:27:02.257Z,9.55
2022-12-08T21:33:50.766Z,9.56
2022-12-08T21:40:36.399Z,9.51
2022-12-08T21:47:22.051Z,9.49
2022-12-08T21:54:14.982Z,9.52
2022-12-08T22:01:09.428Z,9.47
2022-12-08T22:07:55.100Z,9.48
2022-12-08T22:14:43.448Z,9.37
2022-12-08T22:21:29.002Z,9.51
2022-12-08T22:28:14.804Z,9.55
2022-12-08T22:35:02.809Z,9.61
2022-12-08T22:41:48.188Z,9.78
2022-12-08T22:48:33.790Z,9.83
2022-12-08T22:55:21.786Z,9.85
2022-12-08T23:02:07.477Z,9.89
2022-12-08T23:08:53.373Z,9.91
2022-12-08T23:15:42.078Z,10.00
2022-12-08T23:22:27.550Z,10.04
2022-12-08T23:29:12.984Z,10.02
2022-12-08T23:36:04.076Z,9.87
2022-12-08T23:42:49.687Z,9.95
2022-12-08T23:49:35.439Z,9.95
2022-12-08T23:56:28.647Z,9.99
